Orchard Park, NY (14127)

8:37 AM EDT on August 05, 2015 (GMT -0400)
Hawthorne Dr. | | Change Station
CLOSE
Current Station
Personal Weather Station
Location: Orchard Park, NY
Elevation: 787 ft
Nearby Weather Stations

Elev 787 ft 42.78 °N, 78.74 °W | Updated 10 seconds ago

Mostly Cloudy
Mostly Cloudy
61.2 °F
Feels Like 61.2 °F
N
0.0
Wind Variable Wind from East
Gusts 0.0 mph

Today
High -- | Low -- °F
--% Chance of Precip.
Yesterday
High -- | Low -- °F
Precip. -- in
6:10 AM 8:30 PM
Waning Gibbous, 67% visible
Pressure 29.98 in
Visibility 10.0 miles
Clouds Few 7000 ft
Mostly Cloudy 8000 ft
Mostly Cloudy 24000 ft
Dew Point 61 °F
Humidity 99%
Rainfall 0.04 in
Snow Depth Not available.
UV 1 out of 12
Pollen 7.60 out of 12
Air Quality Not available.
Flu Activity Not available.
METAR KBUF 051154Z 30005KT 10SM FEW070 BKN080 BKN240 18/12 A2999 RMK AO2 SLP152 70001 T01830117 10189 20167 53012 $

More Conditions Fewer Conditions

Pressure 29.98 in
Visibility 10.0 miles
Clouds Few 7000 ft
Mostly Cloudy 8000 ft
Mostly Cloudy 24000 ft
Dew Point 61 °F
Humidity 99%
Rainfall 0.04 in
Snow Depth Not available.
UV 1 out of 12
Pollen 7.60 out of 12
Air Quality Not available.
Flu Activity Not available.
METAR KBUF 051154Z 30005KT 10SM FEW070 BKN080 BKN240 18/12 A2999 RMK AO2 SLP152 70001 T01830117 10189 20167 53012 $

More Conditions Fewer Conditions

10-Day Weather Forecast

×

Almanac

Astronomy

Aug. 05, 2015 Rise Set
Actual Time
Civil Twilight
Nautical Twilight
Astronomical Twilight
Moon
Length of Visible Light
Length of Day
Tomorrow will be .
, % of the Moon is Illuminated

Today's Extremes

State Highs State Lows

Community

WunderPhotos

Upload Photos

1,844,170 photos uploaded!

WunderBlogs® & News

Nearby

Air Quality

  Air Quality AQ Index Pollutant
Not available.

Snow Depth

Station Depth Elevation

Earthquake Activity

City Distance Mag. Time & Date
Minimum magnitude displayed is 2.5.

Coastal Water Temperatures

Place Temperature

Stations

Nearby Weather Stations

Station Location Temp. Windchill Dew Point Humidity Wind Precip. Elev Updated Type